sensor_id;sensor_type;location;lat;lon;timestamp;temperature;humidity
35960;DHT22;22043;50.970;7.192;2023-02-01T00:02:18;6.60;99.90
35960;DHT22;22043;50.970;7.192;2023-02-01T00:04:44;6.60;99.90
35960;DHT22;22043;50.970;7.192;2023-02-01T00:07:10;6.70;99.90
35960;DHT22;22043;50.970;7.192;2023-02-01T00:09:35;6.60;99.90
35960;DHT22;22043;50.970;7.192;2023-02-01T00:12:01;6.60;99.90
35960;DHT22;22043;50.970;7.192;2023-02-01T00:14:28;6.60;99.90
35960;DHT22;22043;50.970;7.192;2023-02-01T00:16:54;6.60;99.90
35960;DHT22;22043;50.970;7.192;2023-02-01T00:19:19;6.60;99.90
35960;DHT22;22043;50.970;7.192;2023-02-01T00:21:46;6.50;99.90
35960;DHT22;22043;50.970;7.192;2023-02-01T00:24:12;6.50;99.90
35960;DHT22;22043;50.970;7.192;2023-02-01T00:26:43;6.50;99.90
35960;DHT22;22043;50.970;7.192;2023-02-01T00:29:18;6.50;99.90
35960;DHT22;22043;50.970;7.192;2023-02-01T00:31:44;6.50;99.90
35960;DHT22;22043;50.970;7.192;2023-02-01T00:34:13;6.50;99.90
35960;DHT22;22043;50.970;7.192;2023-02-01T00:36:39;6.50;99.90
35960;DHT22;22043;50.970;7.192;2023-02-01T00:39:04;6.50;99.90
35960;DHT22;22043;50.970;7.192;2023-02-01T00:41:30;6.50;99.90
35960;DHT22;22043;50.970;7.192;2023-02-01T00:43:56;6.50;99.90
35960;DHT22;22043;50.970;7.192;2023-02-01T00:46:22;6.50;99.90
35960;DHT22;22043;50.970;7.192;2023-02-01T00:48:48;6.50;99.90
35960;DHT22;22043;50.970;7.192;2023-02-01T00:51:17;6.60;99.90
35960;DHT22;22043;50.970;7.192;2023-02-01T00:53:44;6.60;99.90
35960;DHT22;22043;50.970;7.192;2023-02-01T00:56:10;6.50;99.90
35960;DHT22;22043;50.970;7.192;2023-02-01T00:58:35;6.60;99.90
35960;DHT22;22043;50.970;7.192;2023-02-01T01:01:15;6.60;99.90
35960;DHT22;22043;50.970;7.192;2023-02-01T01:03:45;6.50;99.90
35960;DHT22;22043;50.970;7.192;2023-02-01T01:06:14;6.50;99.90
35960;DHT22;22043;50.970;7.192;2023-02-01T01:08:40;6.50;99.90
35960;DHT22;22043;50.970;7.192;2023-02-01T01:11:08;6.50;99.90
35960;DHT22;22043;50.970;7.192;2023-02-01T01:13:34;6.50;99.90
35960;DHT22;22043;50.970;7.192;2023-02-01T01:16:05;6.50;99.90
35960;DHT22;22043;50.970;7.192;2023-02-01T01:18:31;6.40;99.90
35960;DHT22;22043;50.970;7.192;2023-02-01T01:20:58;6.40;99.90
35960;DHT22;22043;50.970;7.192;2023-02-01T01:23:25;6.40;99.90
35960;DHT22;22043;50.970;7.192;2023-02-01T01:25:51;6.30;99.90
35960;DHT22;22043;50.970;7.192;2023-02-01T01:28:16;6.40;99.90
35960;DHT22;22043;50.970;7.192;2023-02-01T01:30:42;6.40;99.90
35960;DHT22;22043;50.970;7.192;2023-02-01T01:33:08;6.40;99.90
35960;DHT22;22043;50.970;7.192;2023-02-01T01:35:34;6.30;99.90
35960;DHT22;22043;50.970;7.192;2023-02-01T01:38:01;6.30;99.90
35960;DHT22;22043;50.970;7.192;2023-02-01T01:40:29;6.30;99.90
35960;DHT22;22043;50.970;7.192;2023-02-01T01:42:56;6.30;99.90
35960;DHT22;22043;50.970;7.192;2023-02-01T01:48:01;6.30;99.90
35960;DHT22;22043;50.970;7.192;2023-02-01T01:50:42;6.30;99.90
35960;DHT22;22043;50.970;7.192;2023-02-01T01:53:12;6.30;99.90
35960;DHT22;22043;50.970;7.192;2023-02-01T01:55:43;6.20;99.90
35960;DHT22;22043;50.970;7.192;2023-02-01T01:58:15;6.20;99.90
35960;DHT22;22043;50.970;7.192;2023-02-01T02:00:41;6.30;99.90
35960;DHT22;22043;50.970;7.192;2023-02-01T02:03:14;6.30;99.90
35960;DHT22;22043;50.970;7.192;2023-02-01T02:05:41;6.20;99.90
35960;DHT22;22043;50.970;7.192;2023-02-01T02:08:07;6.20;99.90
35960;DHT22;22043;50.970;7.192;2023-02-01T02:10:33;6.20;99.90
35960;DHT22;22043;50.970;7.192;2023-02-01T02:13:18;6.10;99.90
35960;DHT22;22043;50.970;7.192;2023-02-01T02:16:07;6.10;99.90
35960;DHT22;22043;50.970;7.192;2023-02-01T02:19:04;6.00;99.90
35960;DHT22;22043;50.970;7.192;2023-02-01T02:21:59;6.10;99.90
35960;DHT22;22043;50.970;7.192;2023-02-01T02:24:49;6.00;99.90
35960;DHT22;22043;50.970;7.192;2023-02-01T02:33:35;6.10;99.90
35960;DHT22;22043;50.970;7.192;2023-02-01T02:39:02;6.10;99.90
35960;DHT22;22043;50.970;7.192;2023-02-01T02:41:39;6.10;99.90
35960;DHT22;22043;50.970;7.192;2023-02-01T02:44:33;6.10;99.90
35960;DHT22;22043;50.970;7.192;2023-02-01T02:47:36;6.10;99.90
35960;DHT22;22043;50.970;7.192;2023-02-01T02:50:37;6.10;99.90
35960;DHT22;22043;50.970;7.192;2023-02-01T02:53:49;6.10;99.90
35960;DHT22;22043;50.970;7.192;2023-02-01T02:56:37;6.10;99.90
35960;DHT22;22043;50.970;7.192;2023-02-01T02:59:24;6.10;99.90
35960;DHT22;22043;50.970;7.192;2023-02-01T03:02:10;6.10;99.90
35960;DHT22;22043;50.970;7.192;2023-02-01T03:04:55;6.10;99.90
35960;DHT22;22043;50.970;7.192;2023-02-01T03:10:14;6.10;99.90
35960;DHT22;22043;50.970;7.192;2023-02-01T03:12:43;6.10;99.90
35960;DHT22;22043;50.970;7.192;2023-02-01T03:15:36;6.10;99.90
35960;DHT22;22043;50.970;7.192;2023-02-01T03:18:10;6.10;99.90
35960;DHT22;22043;50.970;7.192;2023-02-01T03:20:40;6.10;99.90
35960;DHT22;22043;50.970;7.192;2023-02-01T03:23:07;6.10;99.90
35960;DHT22;22043;50.970;7.192;2023-02-01T03:25:34;6.10;99.90
35960;DHT22;22043;50.970;7.192;2023-02-01T03:28:01;6.10;99.90
35960;DHT22;22043;50.970;7.192;2023-02-01T03:30:35;6.10;99.90
35960;DHT22;22043;50.970;7.192;2023-02-01T03:33:07;6.10;99.90
35960;DHT22;22043;50.970;7.192;2023-02-01T03:38:11;6.20;99.90
35960;DHT22;22043;50.970;7.192;2023-02-01T03:40:40;6.20;99.90
35960;DHT22;22043;50.970;7.192;2023-02-01T03:43:10;6.10;99.90
35960;DHT22;22043;50.970;7.192;2023-02-01T03:45:41;6.20;99.90
35960;DHT22;22043;50.970;7.192;2023-02-01T03:48:09;6.20;99.90
35960;DHT22;22043;50.970;7.192;2023-02-01T03:50:39;6.20;99.90
35960;DHT22;22043;50.970;7.192;2023-02-01T03:53:12;6.20;99.90
35960;DHT22;22043;50.970;7.192;2023-02-01T03:55:42;6.10;99.90
35960;DHT22;22043;50.970;7.192;2023-02-01T03:58:20;6.20;99.90
35960;DHT22;22043;50.970;7.192;2023-02-01T04:00:57;6.30;99.90
35960;DHT22;22043;50.970;7.192;2023-02-01T04:03:25;6.20;99.90
35960;DHT22;22043;50.970;7.192;2023-02-01T04:05:52;6.30;99.90
35960;DHT22;22043;50.970;7.192;2023-02-01T04:08:23;6.20;99.90
35960;DHT22;22043;50.970;7.192;2023-02-01T04:10:49;6.30;99.90
35960;DHT22;22043;50.970;7.192;2023-02-01T04:13:15;6.30;99.90
35960;DHT22;22043;50.970;7.192;2023-02-01T04:15:40;6.30;99.90
35960;DHT22;22043;50.970;7.192;2023-02-01T04:18:06;6.20;99.90
35960;DHT22;22043;50.970;7.192;2023-02-01T04:20:32;6.20;99.90
35960;DHT22;22043;50.970;7.192;2023-02-01T04:22:58;6.20;99.90
35960;DHT22;22043;50.970;7.192;2023-02-01T04:25:23;6.30;99.90
35960;DHT22;22043;50.970;7.192;2023-02-01T04:27:49;6.30;99.90
35960;DHT22;22043;50.970;7.192;2023-02-01T04:30:15;6.30;99.90
35960;DHT22;22043;50.970;7.192;2023-02-01T04:32:41;6.30;99.90
35960;DHT22;22043;50.970;7.192;2023-02-01T04:35:07;6.30;99.90
35960;DHT22;22043;50.970;7.192;2023-02-01T04:37:33;6.30;99.90
35960;DHT22;22043;50.970;7.192;2023-02-01T04:39:59;6.30;99.90
35960;DHT22;22043;50.970;7.192;2023-02-01T04:42:25;6.30;99.90
35960;DHT22;22043;50.970;7.192;2023-02-01T04:44:51;6.30;99.90
35960;DHT22;22043;50.970;7.192;2023-02-01T04:47:16;6.30;99.90
35960;DHT22;22043;50.970;7.192;2023-02-01T04:49:42;6.20;99.90
35960;DHT22;22043;50.970;7.192;2023-02-01T04:52:08;6.30;99.90
35960;DHT22;22043;50.970;7.192;2023-02-01T04:54:33;6.30;99.90
35960;DHT22;22043;50.970;7.192;2023-02-01T04:56:59;6.20;99.90
35960;DHT22;22043;50.970;7.192;2023-02-01T04:59:26;6.20;99.90
35960;DHT22;22043;50.970;7.192;2023-02-01T05:01:52;6.10;99.90
35960;DHT22;22043;50.970;7.192;2023-02-01T05:04:18;6.10;99.90
35960;DHT22;22043;50.970;7.192;2023-02-01T05:06:44;6.00;99.90
35960;DHT22;22043;50.970;7.192;2023-02-01T05:09:10;6.00;99.90
35960;DHT22;22043;50.970;7.192;2023-02-01T05:11:36;6.00;99.90
35960;DHT22;22043;50.970;7.192;2023-02-01T05:14:20;6.00;99.90
35960;DHT22;22043;50.970;7.192;2023-02-01T05:16:46;6.00;99.90
35960;DHT22;22043;50.970;7.192;2023-02-01T05:19:11;6.00;99.90
35960;DHT22;22043;50.970;7.192;2023-02-01T05:21:38;6.00;99.90
35960;DHT22;22043;50.970;7.192;2023-02-01T05:24:04;6.00;99.90
35960;DHT22;22043;50.970;7.192;2023-02-01T05:26:36;6.10;99.90
35960;DHT22;22043;50.970;7.192;2023-02-01T05:29:03;6.10;99.90
35960;DHT22;22043;50.970;7.192;2023-02-01T05:31:29;6.10;99.90
35960;DHT22;22043;50.970;7.192;2023-02-01T05:33:54;6.10;99.90
35960;DHT22;22043;50.970;7.192;2023-02-01T05:36:20;6.10;99.90
35960;DHT22;22043;50.970;7.192;2023-02-01T05:38:46;6.10;99.90
35960;DHT22;22043;50.970;7.192;2023-02-01T05:41:12;6.10;99.90
35960;DHT22;22043;50.970;7.192;2023-02-01T05:43:37;6.10;99.90
35960;DHT22;22043;50.970;7.192;2023-02-01T05:46:03;6.00;99.90
35960;DHT22;22043;50.970;7.192;2023-02-01T05:48:29;6.00;99.90
35960;DHT22;22043;50.970;7.192;2023-02-01T05:50:55;6.00;99.90
35960;DHT22;22043;50.970;7.192;2023-02-01T05:53:20;6.00;99.90
35960;DHT22;22043;50.970;7.192;2023-02-01T05:55:46;6.00;99.90
35960;DHT22;22043;50.970;7.192;2023-02-01T05:58:12;6.10;99.90
35960;DHT22;22043;50.970;7.192;2023-02-01T06:00:38;6.10;99.90
35960;DHT22;22043;50.970;7.192;2023-02-01T06:03:04;6.10;99.90
35960;DHT22;22043;50.970;7.192;2023-02-01T06:05:29;6.10;99.90
35960;DHT22;22043;50.970;7.192;2023-02-01T06:07:55;6.10;99.90
35960;DHT22;22043;50.970;7.192;2023-02-01T06:10:21;6.10;99.90
35960;DHT22;22043;50.970;7.192;2023-02-01T06:12:47;6.10;99.90
35960;DHT22;22043;50.970;7.192;2023-02-01T06:15:14;6.20;99.90
35960;DHT22;22043;50.970;7.192;2023-02-01T06:17:44;6.20;99.90
35960;DHT22;22043;50.970;7.192;2023-02-01T06:20:13;6.20;99.90
35960;DHT22;22043;50.970;7.192;2023-02-01T06:22:39;6.20;99.90
35960;DHT22;22043;50.970;7.192;2023-02-01T06:25:06;6.20;99.90
35960;DHT22;22043;50.970;7.192;2023-02-01T06:27:32;6.20;99.90
35960;DHT22;22043;50.970;7.192;2023-02-01T06:29:58;6.10;99.90
35960;DHT22;22043;50.970;7.192;2023-02-01T06:32:25;6.20;99.90
35960;DHT22;22043;50.970;7.192;2023-02-01T06:34:51;6.20;99.90
35960;DHT22;22043;50.970;7.192;2023-02-01T06:37:22;6.20;99.90
35960;DHT22;22043;50.970;7.192;2023-02-01T06:39:48;6.20;99.90
35960;DHT22;22043;50.970;7.192;2023-02-01T06:42:14;6.10;99.90
35960;DHT22;22043;50.970;7.192;2023-02-01T06:44:40;6.10;99.90
35960;DHT22;22043;50.970;7.192;2023-02-01T06:47:05;6.20;99.90
35960;DHT22;22043;50.970;7.192;2023-02-01T06:49:31;6.20;99.90
35960;DHT22;22043;50.970;7.192;2023-02-01T06:51:57;6.20;99.90
35960;DHT22;22043;50.970;7.192;2023-02-01T06:54:26;6.20;99.90
35960;DHT22;22043;50.970;7.192;2023-02-01T06:56:51;6.30;99.90
35960;DHT22;22043;50.970;7.192;2023-02-01T06:59:17;6.30;99.90
35960;DHT22;22043;50.970;7.192;2023-02-01T07:01:42;6.20;99.90
35960;DHT22;22043;50.970;7.192;2023-02-01T07:04:10;6.30;99.90
35960;DHT22;22043;50.970;7.192;2023-02-01T07:06:37;6.30;99.90
35960;DHT22;22043;50.970;7.192;2023-02-01T07:09:03;6.30;99.90
35960;DHT22;22043;50.970;7.192;2023-02-01T07:11:29;6.30;99.90
35960;DHT22;22043;50.970;7.192;2023-02-01T07:13:56;6.30;99.90
35960;DHT22;22043;50.970;7.192;2023-02-01T07:16:22;6.30;99.90
35960;DHT22;22043;50.970;7.192;2023-02-01T07:18:49;6.30;99.90
35960;DHT22;22043;50.970;7.192;2023-02-01T07:21:15;6.20;99.90
35960;DHT22;22043;50.970;7.192;2023-02-01T07:23:41;6.20;99.90
35960;DHT22;22043;50.970;7.192;2023-02-01T07:26:09;6.30;99.90
35960;DHT22;22043;50.970;7.192;2023-02-01T07:28:35;6.30;99.90
35960;DHT22;22043;50.970;7.192;2023-02-01T07:31:06;6.30;99.90
35960;DHT22;22043;50.970;7.192;2023-02-01T07:33:33;6.30;99.90
35960;DHT22;22043;50.970;7.192;2023-02-01T07:36:00;6.30;99.90
35960;DHT22;22043;50.970;7.192;2023-02-01T07:38:27;6.30;99.90
35960;DHT22;22043;50.970;7.192;2023-02-01T07:40:58;6.30;99.90
35960;DHT22;22043;50.970;7.192;2023-02-01T07:43:25;6.20;99.90
35960;DHT22;22043;50.970;7.192;2023-02-01T07:45:52;6.20;99.90
35960;DHT22;22043;50.970;7.192;2023-02-01T07:48:18;6.30;99.90
35960;DHT22;22043;50.970;7.192;2023-02-01T07:50:44;6.30;99.90
35960;DHT22;22043;50.970;7.192;2023-02-01T07:53:09;6.30;99.90
35960;DHT22;22043;50.970;7.192;2023-02-01T07:55:38;6.30;99.90
35960;DHT22;22043;50.970;7.192;2023-02-01T07:58:04;6.30;99.90
35960;DHT22;22043;50.970;7.192;2023-02-01T08:00:30;6.20;99.90
35960;DHT22;22043;50.970;7.192;2023-02-01T08:03:14;6.30;99.90
35960;DHT22;22043;50.970;7.192;2023-02-01T08:05:40;6.30;99.90
35960;DHT22;22043;50.970;7.192;2023-02-01T08:08:06;6.30;99.90
35960;DHT22;22043;50.970;7.192;2023-02-01T08:10:32;6.30;99.90
35960;DHT22;22043;50.970;7.192;2023-02-01T08:12:59;6.30;99.90
35960;DHT22;22043;50.970;7.192;2023-02-01T08:15:26;6.30;99.90
35960;DHT22;22043;50.970;7.192;2023-02-01T08:17:53;6.40;99.90
35960;DHT22;22043;50.970;7.192;2023-02-01T08:20:20;6.30;99.90
35960;DHT22;22043;50.970;7.192;2023-02-01T08:22:52;6.30;99.90
35960;DHT22;22043;50.970;7.192;2023-02-01T08:25:18;6.30;99.90
35960;DHT22;22043;50.970;7.192;2023-02-01T08:27:44;6.30;99.90
35960;DHT22;22043;50.970;7.192;2023-02-01T08:30:10;6.30;99.90
35960;DHT22;22043;50.970;7.192;2023-02-01T08:32:36;6.30;99.90
35960;DHT22;22043;50.970;7.192;2023-02-01T08:35:03;6.30;99.90
35960;DHT22;22043;50.970;7.192;2023-02-01T08:37:29;6.30;99.90
35960;DHT22;22043;50.970;7.192;2023-02-01T08:39:55;6.30;99.90
35960;DHT22;22043;50.970;7.192;2023-02-01T08:42:20;6.30;99.90
35960;DHT22;22043;50.970;7.192;2023-02-01T08:45:05;6.30;99.90
35960;DHT22;22043;50.970;7.192;2023-02-01T08:47:34;6.40;99.90
35960;DHT22;22043;50.970;7.192;2023-02-01T08:50:00;6.40;99.90
35960;DHT22;22043;50.970;7.192;2023-02-01T08:52:26;6.40;99.90
35960;DHT22;22043;50.970;7.192;2023-02-01T08:54:51;6.40;99.90
35960;DHT22;22043;50.970;7.192;2023-02-01T08:57:17;6.40;99.90
35960;DHT22;22043;50.970;7.192;2023-02-01T08:59:43;6.40;99.90
35960;DHT22;22043;50.970;7.192;2023-02-01T09:02:14;6.40;99.90
35960;DHT22;22043;50.970;7.192;2023-02-01T09:04:40;6.50;99.90
35960;DHT22;22043;50.970;7.192;2023-02-01T09:07:09;6.40;99.90
35960;DHT22;22043;50.970;7.192;2023-02-01T09:09:36;6.40;99.90
35960;DHT22;22043;50.970;7.192;2023-02-01T09:12:03;6.40;99.90
35960;DHT22;22043;50.970;7.192;2023-02-01T09:14:28;6.40;99.90
35960;DHT22;22043;50.970;7.192;2023-02-01T09:16:54;6.50;99.90
35960;DHT22;22043;50.970;7.192;2023-02-01T09:19:20;6.50;99.90
35960;DHT22;22043;50.970;7.192;2023-02-01T09:21:46;6.50;99.90
35960;DHT22;22043;50.970;7.192;2023-02-01T09:24:12;6.50;99.90
35960;DHT22;22043;50.970;7.192;2023-02-01T09:26:38;6.60;99.90
35960;DHT22;22043;50.970;7.192;2023-02-01T09:29:04;6.60;99.90
35960;DHT22;22043;50.970;7.192;2023-02-01T09:31:35;6.70;99.90
35960;DHT22;22043;50.970;7.192;2023-02-01T09:34:01;6.70;99.90
35960;DHT22;22043;50.970;7.192;2023-02-01T09:36:27;6.70;99.90
35960;DHT22;22043;50.970;7.192;2023-02-01T09:38:52;6.70;99.90
35960;DHT22;22043;50.970;7.192;2023-02-01T09:41:35;6.80;99.90
35960;DHT22;22043;50.970;7.192;2023-02-01T09:44:40;6.70;99.90
35960;DHT22;22043;50.970;7.192;2023-02-01T09:47:14;6.70;99.90
35960;DHT22;22043;50.970;7.192;2023-02-01T09:50:02;6.80;99.90
35960;DHT22;22043;50.970;7.192;2023-02-01T09:52:36;6.80;99.90
35960;DHT22;22043;50.970;7.192;2023-02-01T09:55:16;6.90;99.90
35960;DHT22;22043;50.970;7.192;2023-02-01T09:57:51;6.90;99.90
35960;DHT22;22043;50.970;7.192;2023-02-01T10:00:36;6.90;99.90
35960;DHT22;22043;50.970;7.192;2023-02-01T10:03:03;6.90;99.90
35960;DHT22;22043;50.970;7.192;2023-02-01T10:17:12;6.90;99.90
35960;DHT22;22043;50.970;7.192;2023-02-01T10:22:51;6.90;99.90
35960;DHT22;22043;50.970;7.192;2023-02-01T10:25:31;6.90;99.90
35960;DHT22;22043;50.970;7.192;2023-02-01T10:28:01;6.90;99.90
35960;DHT22;22043;50.970;7.192;2023-02-01T10:30:34;6.90;99.90
35960;DHT22;22043;50.970;7.192;2023-02-01T10:33:18;6.90;99.90
35960;DHT22;22043;50.970;7.192;2023-02-01T10:35:45;6.90;99.90
35960;DHT22;22043;50.970;7.192;2023-02-01T10:38:22;7.00;99.90
35960;DHT22;22043;50.970;7.192;2023-02-01T10:40:51;7.00;99.90
35960;DHT22;22043;50.970;7.192;2023-02-01T10:43:17;7.10;99.90
35960;DHT22;22043;50.970;7.192;2023-02-01T10:45:43;7.20;99.90
35960;DHT22;22043;50.970;7.192;2023-02-01T10:48:09;7.20;99.90
35960;DHT22;22043;50.970;7.192;2023-02-01T10:55:53;7.40;99.90
35960;DHT22;22043;50.970;7.192;2023-02-01T10:58:32;7.40;99.90
35960;DHT22;22043;50.970;7.192;2023-02-01T11:01:01;7.50;99.90
35960;DHT22;22043;50.970;7.192;2023-02-01T11:04:00;7.60;99.90
35960;DHT22;22043;50.970;7.192;2023-02-01T11:09:18;7.60;99.90
35960;DHT22;22043;50.970;7.192;2023-02-01T11:14:17;7.50;99.90
35960;DHT22;22043;50.970;7.192;2023-02-01T11:17:23;7.50;99.90
35960;DHT22;22043;50.970;7.192;2023-02-01T11:19:43;7.50;99.90
35960;DHT22;22043;50.970;7.192;2023-02-01T11:22:12;7.50;99.90
35960;DHT22;22043;50.970;7.192;2023-02-01T11:24:38;7.50;99.90
35960;DHT22;22043;50.970;7.192;2023-02-01T11:27:13;7.50;99.90
35960;DHT22;22043;50.970;7.192;2023-02-01T11:29:46;7.50;99.90
35960;DHT22;22043;50.970;7.192;2023-02-01T11:32:14;7.40;99.90
35960;DHT22;22043;50.970;7.192;2023-02-01T11:35:00;7.40;99.90
35960;DHT22;22043;50.970;7.192;2023-02-01T11:37:50;7.40;99.90
35960;DHT22;22043;50.970;7.192;2023-02-01T11:43:00;7.50;99.90
35960;DHT22;22043;50.970;7.192;2023-02-01T11:45:31;7.50;99.90
35960;DHT22;22043;50.970;7.192;2023-02-01T11:48:00;7.50;99.90
35960;DHT22;22043;50.970;7.192;2023-02-01T11:51:19;7.40;99.90
35960;DHT22;22043;50.970;7.192;2023-02-01T11:53:57;7.40;99.90
35960;DHT22;22043;50.970;7.192;2023-02-01T11:56:37;7.40;99.90
35960;DHT22;22043;50.970;7.192;2023-02-01T12:00:04;7.50;99.90
35960;DHT22;22043;50.970;7.192;2023-02-01T12:02:57;7.40;99.90
35960;DHT22;22043;50.970;7.192;2023-02-01T12:05:56;7.60;99.90
35960;DHT22;22043;50.970;7.192;2023-02-01T12:16:42;7.60;99.90
35960;DHT22;22043;50.970;7.192;2023-02-01T12:19:39;7.50;99.90
35960;DHT22;22043;50.970;7.192;2023-02-01T12:22:23;7.50;99.90
35960;DHT22;22043;50.970;7.192;2023-02-01T12:25:04;7.50;99.90
35960;DHT22;22043;50.970;7.192;2023-02-01T12:36:25;7.60;99.90
35960;DHT22;22043;50.970;7.192;2023-02-01T12:42:04;7.60;99.90
35960;DHT22;22043;50.970;7.192;2023-02-01T12:47:26;7.50;99.90
35960;DHT22;22043;50.970;7.192;2023-02-01T12:52:48;7.50;99.90
35960;DHT22;22043;50.970;7.192;2023-02-01T12:55:38;7.50;99.90
35960;DHT22;22043;50.970;7.192;2023-02-01T12:58:18;7.50;99.90
35960;DHT22;22043;50.970;7.192;2023-02-01T13:00:47;7.50;99.90
35960;DHT22;22043;50.970;7.192;2023-02-01T13:06:47;7.50;99.90
35960;DHT22;22043;50.970;7.192;2023-02-01T13:11:49;7.50;99.90
35960;DHT22;22043;50.970;7.192;2023-02-01T13:17:09;7.40;99.90
35960;DHT22;22043;50.970;7.192;2023-02-01T13:19:56;7.50;99.90
35960;DHT22;22043;50.970;7.192;2023-02-01T13:22:24;7.50;99.90
35960;DHT22;22043;50.970;7.192;2023-02-01T13:24:56;7.40;99.90
35960;DHT22;22043;50.970;7.192;2023-02-01T13:27:22;7.40;99.90
35960;DHT22;22043;50.970;7.192;2023-02-01T13:30:07;7.40;99.90
35960;DHT22;22043;50.970;7.192;2023-02-01T13:36:14;7.40;99.90
35960;DHT22;22043;50.970;7.192;2023-02-01T13:41:27;7.40;99.90
35960;DHT22;22043;50.970;7.192;2023-02-01T13:44:08;7.40;99.90
35960;DHT22;22043;50.970;7.192;2023-02-01T13:46:43;7.40;99.90
35960;DHT22;22043;50.970;7.192;2023-02-01T13:49:25;7.40;99.90
35960;DHT22;22043;50.970;7.192;2023-02-01T13:51:53;7.40;99.90
35960;DHT22;22043;50.970;7.192;2023-02-01T13:54:38;7.30;99.90
35960;DHT22;22043;50.970;7.192;2023-02-01T13:59:52;7.30;99.90
35960;DHT22;22043;50.970;7.192;2023-02-01T14:05:07;7.30;99.90
35960;DHT22;22043;50.970;7.192;2023-02-01T14:07:33;7.40;99.90
35960;DHT22;22043;50.970;7.192;2023-02-01T14:13:04;7.40;99.90
35960;DHT22;22043;50.970;7.192;2023-02-01T14:15:30;7.40;99.90
35960;DHT22;22043;50.970;7.192;2023-02-01T14:17:56;7.40;99.90
35960;DHT22;22043;50.970;7.192;2023-02-01T14:20:42;7.40;99.90
35960;DHT22;22043;50.970;7.192;2023-02-01T14:23:14;7.40;99.90
35960;DHT22;22043;50.970;7.192;2023-02-01T14:25:40;7.50;99.90
35960;DHT22;22043;50.970;7.192;2023-02-01T14:28:12;7.50;99.90
35960;DHT22;22043;50.970;7.192;2023-02-01T14:30:42;7.50;99.90
35960;DHT22;22043;50.970;7.192;2023-02-01T14:33:19;7.50;99.90
35960;DHT22;22043;50.970;7.192;2023-02-01T14:36:04;7.50;99.90
35960;DHT22;22043;50.970;7.192;2023-02-01T14:38:32;7.50;99.90
35960;DHT22;22043;50.970;7.192;2023-02-01T14:41:33;7.60;99.90
35960;DHT22;22043;50.970;7.192;2023-02-01T14:52:35;7.60;99.90
35960;DHT22;22043;50.970;7.192;2023-02-01T14:55:33;7.60;99.90
35960;DHT22;22043;50.970;7.192;2023-02-01T14:58:01;7.60;99.90
35960;DHT22;22043;50.970;7.192;2023-02-01T15:00:30;7.60;99.90
35960;DHT22;22043;50.970;7.192;2023-02-01T15:05:37;7.60;99.90
35960;DHT22;22043;50.970;7.192;2023-02-01T15:08:07;7.60;99.90
35960;DHT22;22043;50.970;7.192;2023-02-01T15:10:42;7.60;99.90
35960;DHT22;22043;50.970;7.192;2023-02-01T15:13:21;7.60;99.90
35960;DHT22;22043;50.970;7.192;2023-02-01T15:16:10;7.60;99.90
35960;DHT22;22043;50.970;7.192;2023-02-01T15:18:36;7.60;99.90
35960;DHT22;22043;50.970;7.192;2023-02-01T15:21:03;7.60;99.90
35960;DHT22;22043;50.970;7.192;2023-02-01T15:23:34;7.70;99.90
35960;DHT22;22043;50.970;7.192;2023-02-01T15:25:59;7.60;99.90
35960;DHT22;22043;50.970;7.192;2023-02-01T15:28:26;7.60;99.90
35960;DHT22;22043;50.970;7.192;2023-02-01T15:31:03;7.70;99.90
35960;DHT22;22043;50.970;7.192;2023-02-01T15:33:31;7.70;99.90
35960;DHT22;22043;50.970;7.192;2023-02-01T15:36:07;7.60;99.90
35960;DHT22;22043;50.970;7.192;2023-02-01T15:38:42;7.60;99.90
35960;DHT22;22043;50.970;7.192;2023-02-01T15:41:11;7.60;99.90
35960;DHT22;22043;50.970;7.192;2023-02-01T15:43:49;7.50;99.90
35960;DHT22;22043;50.970;7.192;2023-02-01T15:46:39;7.50;99.90
35960;DHT22;22043;50.970;7.192;2023-02-01T15:49:30;7.50;99.90
35960;DHT22;22043;50.970;7.192;2023-02-01T15:51:57;7.50;99.90
35960;DHT22;22043;50.970;7.192;2023-02-01T15:54:40;7.50;99.90
35960;DHT22;22043;50.970;7.192;2023-02-01T15:57:06;7.50;99.90
35960;DHT22;22043;50.970;7.192;2023-02-01T15:59:37;7.40;99.90
35960;DHT22;22043;50.970;7.192;2023-02-01T16:02:25;7.50;99.90
35960;DHT22;22043;50.970;7.192;2023-02-01T16:04:51;7.50;99.90
35960;DHT22;22043;50.970;7.192;2023-02-01T16:07:31;7.50;99.90
35960;DHT22;22043;50.970;7.192;2023-02-01T16:10:02;7.60;99.90
35960;DHT22;22043;50.970;7.192;2023-02-01T16:15:06;7.60;99.90
35960;DHT22;22043;50.970;7.192;2023-02-01T16:17:32;7.60;99.90
35960;DHT22;22043;50.970;7.192;2023-02-01T16:19:58;7.60;99.90
35960;DHT22;22043;50.970;7.192;2023-02-01T16:22:24;7.60;99.90
35960;DHT22;22043;50.970;7.192;2023-02-01T16:24:50;7.70;99.90
35960;DHT22;22043;50.970;7.192;2023-02-01T16:27:15;7.60;99.90
35960;DHT22;22043;50.970;7.192;2023-02-01T16:29:41;7.60;99.90
35960;DHT22;22043;50.970;7.192;2023-02-01T16:32:19;7.60;99.90
35960;DHT22;22043;50.970;7.192;2023-02-01T16:34:46;7.60;99.90
35960;DHT22;22043;50.970;7.192;2023-02-01T16:37:15;7.60;99.90
35960;DHT22;22043;50.970;7.192;2023-02-01T16:39:41;7.60;99.90
35960;DHT22;22043;50.970;7.192;2023-02-01T16:42:11;7.60;99.90
35960;DHT22;22043;50.970;7.192;2023-02-01T16:44:37;7.60;99.90
35960;DHT22;22043;50.970;7.192;2023-02-01T16:47:11;7.60;99.90
35960;DHT22;22043;50.970;7.192;2023-02-01T16:49:37;7.60;99.90
35960;DHT22;22043;50.970;7.192;2023-02-01T16:52:04;7.60;99.90
35960;DHT22;22043;50.970;7.192;2023-02-01T16:54:29;7.60;99.90
35960;DHT22;22043;50.970;7.192;2023-02-01T16:56:55;7.60;99.90
35960;DHT22;22043;50.970;7.192;2023-02-01T16:59:21;7.60;99.90
35960;DHT22;22043;50.970;7.192;2023-02-01T17:01:46;7.60;99.90
35960;DHT22;22043;50.970;7.192;2023-02-01T17:04:12;7.60;99.90
35960;DHT22;22043;50.970;7.192;2023-02-01T17:06:38;7.60;99.90
35960;DHT22;22043;50.970;7.192;2023-02-01T17:09:04;7.60;99.90
35960;DHT22;22043;50.970;7.192;2023-02-01T17:11:30;7.60;99.90
35960;DHT22;22043;50.970;7.192;2023-02-01T17:14:04;7.60;99.90
35960;DHT22;22043;50.970;7.192;2023-02-01T17:16:35;7.60;99.90
35960;DHT22;22043;50.970;7.192;2023-02-01T17:19:06;7.60;99.90
35960;DHT22;22043;50.970;7.192;2023-02-01T17:21:46;7.60;99.90
35960;DHT22;22043;50.970;7.192;2023-02-01T17:24:14;7.60;99.90
35960;DHT22;22043;50.970;7.192;2023-02-01T17:26:41;7.60;99.90
35960;DHT22;22043;50.970;7.192;2023-02-01T17:29:07;7.50;99.90
35960;DHT22;22043;50.970;7.192;2023-02-01T17:31:37;7.50;99.90
35960;DHT22;22043;50.970;7.192;2023-02-01T17:34:03;7.50;99.90
35960;DHT22;22043;50.970;7.192;2023-02-01T17:36:28;7.50;99.90
35960;DHT22;22043;50.970;7.192;2023-02-01T17:38:54;7.60;99.90
35960;DHT22;22043;50.970;7.192;2023-02-01T17:41:20;7.60;99.90
35960;DHT22;22043;50.970;7.192;2023-02-01T17:43:52;7.50;99.90
35960;DHT22;22043;50.970;7.192;2023-02-01T17:46:18;7.50;99.90
35960;DHT22;22043;50.970;7.192;2023-02-01T17:48:46;7.60;99.90
35960;DHT22;22043;50.970;7.192;2023-02-01T17:51:20;7.60;99.90
35960;DHT22;22043;50.970;7.192;2023-02-01T17:53:46;7.50;99.90
35960;DHT22;22043;50.970;7.192;2023-02-01T17:56:13;7.50;99.90
35960;DHT22;22043;50.970;7.192;2023-02-01T17:58:40;7.60;99.90